Time;durP1;ratioP1;P1;durP2;ratioP2;P2;SDS_P1;SDS_P2;PMS_P1;PMS_P2;Temp;Humidity;BMP_temperature;BMP_pressure;BME280_temperature;BME280_humidity;BME280_pressure;Samples;Min_cycle;Max_cycle;Signal;HPM_P1;HPM_P2
2022/09/02 00:09:24;;;;;;;7.13;1.50;;;21.80;90.00;;;;;;7423435;79;26281;-59
2022/09/02 00:19:28;;;;;;;1.77;1.20;;;21.80;89.90;;;;;;7423395;79;26371;-58
2022/09/02 00:29:31;;;;;;;2.23;1.30;;;21.70;90.00;;;;;;7426087;79;26288;-58
2022/09/02 00:39:33;;;;;;;3.53;1.53;;;21.70;90.00;;;;;;7432907;79;26359;-59
2022/09/02 00:49:39;;;;;;;2.60;1.40;;;21.70;90.00;;;;;;7438222;79;26280;-60
2022/09/02 00:59:56;;;;;;;3.87;1.20;;;21.60;90.40;;;;;;7438074;79;26297;-58
2022/09/02 01:09:59;;;;;;;5.17;1.23;;;21.60;90.60;;;;;;7448393;78;26763;-59
2022/09/02 01:20:13;;;;;;;5.07;1.47;;;21.60;90.60;;;;;;7432302;79;26771;-60
2022/09/02 01:30:24;;;;;;;5.43;1.43;;;21.50;90.50;;;;;;7442211;79;26817;-59
2022/09/02 01:40:29;;;;;;;1.93;1.43;;;21.50;90.40;;;;;;7442399;79;26759;-59
2022/09/02 01:50:32;;;;;;;2.67;1.20;;;21.50;90.10;;;;;;7428867;79;26300;-59
2022/09/02 02:00:35;;;;;;;3.77;1.40;;;21.40;90.20;;;;;;7435131;79;26258;-59
2022/09/02 02:10:39;;;;;;;3.80;2.10;;;21.40;90.20;;;;;;7437680;79;26826;-60
2022/09/02 02:20:41;;;;;;;4.20;1.63;;;21.40;90.00;;;;;;7432432;79;26277;-59
2022/09/02 02:30:44;;;;;;;7.73;1.40;;;21.40;90.00;;;;;;7438377;79;26343;-59
2022/09/02 02:40:46;;;;;;;4.67;1.43;;;21.30;89.80;;;;;;7437733;79;26731;-59
2022/09/02 02:50:49;;;;;;;3.23;1.20;;;21.30;89.80;;;;;;7424288;79;26250;-59
2022/09/02 03:00:52;;;;;;;5.60;1.57;;;21.30;89.90;;;;;;7381915;80;26330;-59
2022/09/02 03:10:56;;;;;;;4.80;1.50;;;21.30;89.90;;;;;;7392902;78;26270;-59
2022/09/02 03:20:59;;;;;;;2.43;1.40;;;21.20;89.80;;;;;;7431144;79;26756;-59
2022/09/02 03:31:01;;;;;;;2.10;1.30;;;21.20;89.50;;;;;;7381432;80;26304;-59
2022/09/02 03:41:04;;;;;;;2.17;1.10;;;21.20;89.20;;;;;;7380777;80;26324;-59
2022/09/02 03:51:07;;;;;;;2.97;1.50;;;21.10;89.30;;;;;;7471779;79;26236;-59
2022/09/02 04:01:18;;;;;;;5.37;1.53;;;21.10;89.00;;;;;;7399718;79;26815;-59
2022/09/02 04:11:22;;;;;;;4.17;1.40;;;21.10;88.90;;;;;;7375354;80;26764;-59
2022/09/02 04:21:25;;;;;;;4.80;1.50;;;21.00;89.00;;;;;;7413771;79;26318;-59
2022/09/02 04:31:32;;;;;;;4.13;1.40;;;21.00;88.90;;;;;;7380811;80;26314;-59
2022/09/02 04:41:34;;;;;;;5.37;1.33;;;21.00;88.90;;;;;;7378792;80;27162;-59
2022/09/02 04:51:37;;;;;;;10.30;2.80;;;21.00;88.70;;;;;;7427508;79;26877;-59
2022/09/02 05:01:41;;;;;;;3.83;1.63;;;20.90;88.60;;;;;;7477349;79;26625;-59
2022/09/02 05:11:46;;;;;;;4.70;1.50;;;20.90;88.50;;;;;;7502636;79;26731;-59
2022/09/02 05:21:49;;;;;;;3.30;1.37;;;20.90;88.20;;;;;;7477012;78;26739;-59
2022/09/02 05:31:52;;;;;;;3.73;1.30;;;20.90;88.70;;;;;;7445558;79;26333;-59
2022/09/02 05:41:54;;;;;;;3.80;1.80;;;20.80;88.50;;;;;;7444793;79;26248;-59
2022/09/02 05:51:59;;;;;;;5.97;1.30;;;20.80;88.40;;;;;;7443963;79;26265;-58
2022/09/02 06:02:01;;;;;;;9.73;1.97;;;20.80;91.20;;;;;;7439695;79;26304;-60
2022/09/02 06:12:04;;;;;;;21.27;2.53;;;20.80;91.30;;;;;;7436179;78;26288;-59
2022/09/02 06:22:07;;;;;;;7.90;1.87;;;20.80;90.80;;;;;;7440416;79;26269;-60
2022/09/02 06:32:09;;;;;;;8.67;1.40;;;20.80;90.40;;;;;;7439591;79;26722;-59
2022/09/02 06:42:12;;;;;;;4.23;1.40;;;20.80;90.10;;;;;;7440654;79;26326;-58
2022/09/02 06:52:14;;;;;;;3.33;1.50;;;20.70;88.30;;;;;;7443605;79;26354;-59
2022/09/02 07:02:17;;;;;;;6.33;1.47;;;20.80;87.40;;;;;;7437612;79;26743;-59
2022/09/02 07:12:19;;;;;;;8.10;1.57;;;20.80;88.90;;;;;;7437619;79;26281;-59
2022/09/02 07:22:22;;;;;;;4.97;1.03;;;20.80;89.40;;;;;;7434939;78;26812;-59
2022/09/02 07:32:25;;;;;;;4.70;1.57;;;20.90;88.10;;;;;;7484750;79;26289;-60
2022/09/02 07:42:27;;;;;;;3.20;1.40;;;20.90;87.90;;;;;;7382558;79;26339;-59
2022/09/02 07:52:30;;;;;;;1.77;1.27;;;20.90;85.90;;;;;;7434390;79;26280;-59
2022/09/02 08:02:33;;;;;;;17.17;2.57;;;20.80;86.20;;;;;;7437928;79;26756;-59
2022/09/02 08:12:36;;;;;;;9.30;1.83;;;21.00;85.70;;;;;;7418511;79;27174;-59
2022/09/02 08:22:39;;;;;;;11.77;1.80;;;21.00;86.60;;;;;;7450292;79;26284;-59
2022/09/02 08:32:42;;;;;;;4.90;1.60;;;21.10;86.50;;;;;;7446052;78;26335;-59
2022/09/02 08:42:47;;;;;;;5.47;1.67;;;21.20;84.50;;;;;;7440785;79;26739;-59
2022/09/02 08:53:05;;;;;;;8.90;1.70;;;21.20;86.50;;;;;;7439613;79;26410;-60
2022/09/02 09:03:30;;;;;;;7.00;1.67;;;21.20;83.70;;;;;;7478156;78;26256;-60
2022/09/02 09:13:52;;;;;;;3.33;1.23;;;21.30;84.20;;;;;;7440156;79;26402;-59
2022/09/02 09:23:56;;;;;;;2.50;1.40;;;21.30;81.50;;;;;;7454124;78;26360;-58
2022/09/02 09:34:04;;;;;;;5.37;1.20;;;21.40;80.70;;;;;;7437124;79;26293;-58
2022/09/02 09:44:07;;;;;;;7.27;1.20;;;21.40;80.20;;;;;;7438358;79;26746;-57
2022/09/02 09:54:17;;;;;;;9.40;1.93;;;21.50;80.20;;;;;;7454651;79;26339;-57
2022/09/02 10:04:32;;;;;;;16.00;2.50;;;21.50;77.20;;;;;;7483204;79;27126;-57
2022/09/02 10:14:39;;;;;;;21.13;3.50;;;21.60;76.80;;;;;;7443163;79;26363;-60
2022/09/02 10:24:49;;;;;;;15.83;2.07;;;21.60;78.00;;;;;;7434845;79;26281;-61
2022/09/02 10:34:57;;;;;;;5.12;2.00;;;21.60;76.20;;;;;;7439883;79;26284;-61
2022/09/02 10:45:05;;;;;;;5.97;2.00;;;21.70;74.70;;;;;;7442220;79;26289;-61
2022/09/02 10:55:13;;;;;;;4.03;1.20;;;21.80;73.70;;;;;;7405707;78;26249;-66
2022/09/02 11:05:31;;;;;;;2.83;1.60;;;21.70;73.30;;;;;;7501530;79;26355;-60
2022/09/02 11:15:38;;;;;;;2.83;1.20;;;21.80;75.40;;;;;;7490937;78;26256;-60
2022/09/02 11:25:46;;;;;;;3.70;1.50;;;21.80;74.60;;;;;;7489868;79;26257;-60
2022/09/02 11:35:49;;;;;;;2.53;1.43;;;21.70;73.80;;;;;;7542121;78;27046;-60
2022/09/02 11:46:10;;;;;;;2.27;1.10;;;21.80;74.40;;;;;;7475457;78;26274;-60
2022/09/02 11:56:18;;;;;;;3.70;1.57;;;21.70;74.50;;;;;;7446136;79;26882;-60
2022/09/02 12:06:21;;;;;;;4.37;1.80;;;21.90;75.00;;;;;;7421609;79;26849;-60
2022/09/02 12:16:30;;;;;;;3.27;1.00;;;21.90;74.60;;;;;;7447685;78;26406;-60
2022/09/02 12:26:44;;;;;;;2.63;1.30;;;21.90;74.10;;;;;;7448040;79;26287;-61
2022/09/02 12:36:52;;;;;;;5.63;1.50;;;22.00;74.10;;;;;;7450593;79;26801;-61
2022/09/02 12:47:04;;;;;;;4.83;1.30;;;22.00;72.40;;;;;;7457774;79;26285;-59
2022/09/02 12:57:08;;;;;;;6.03;1.20;;;22.00;73.00;;;;;;7439595;79;26269;-59
2022/09/02 13:07:35;;;;;;;10.93;1.63;;;22.10;72.40;;;;;;7460546;79;26766;-57
2022/09/02 13:17:49;;;;;;;4.87;1.40;;;22.10;73.40;;;;;;7500714;79;26372;-56
2022/09/02 13:28:07;;;;;;;24.23;4.43;;;22.20;73.60;;;;;;7463408;78;26282;-57
2022/09/02 13:38:12;;;;;;;38.70;4.67;;;22.10;74.70;;;;;;7461933;79;26265;-58
2022/09/02 13:48:24;;;;;;;20.23;2.67;;;22.20;75.70;;;;;;7386732;79;26787;-58
2022/09/02 13:58:36;;;;;;;2.73;1.27;;;22.20;76.10;;;;;;7402229;79;26277;-59
2022/09/02 14:08:38;;;;;;;9.23;2.27;;;22.20;72.80;;;;;;7457403;79;26257;-56
2022/09/02 14:18:44;;;;;;;15.90;1.85;;;22.20;73.90;;;;;;7498940;79;26343;-55
2022/09/02 14:28:50;;;;;;;11.93;1.57;;;22.30;72.60;;;;;;7491764;79;26240;-57
2022/09/02 14:38:56;;;;;;;20.60;3.17;;;22.30;72.20;;;;;;7461462;79;26233;-57
2022/09/02 14:49:10;;;;;;;18.77;2.00;;;22.30;73.20;;;;;;7450733;79;26338;-59
2022/09/02 14:59:13;;;;;;;14.33;1.63;;;22.30;73.50;;;;;;7432948;79;26326;-58
2022/09/02 15:09:16;;;;;;;11.53;1.13;;;22.30;72.20;;;;;;7489356;79;26261;-56
2022/09/02 15:19:19;;;;;;;3.57;1.27;;;22.30;72.50;;;;;;7485456;78;26336;-60
2022/09/02 15:29:21;;;;;;;2.15;1.00;;;22.30;73.60;;;;;;7554279;78;26727;-56
2022/09/02 15:39:27;;;;;;;0.63;0.63;;;22.30;72.30;;;;;;7558136;78;26355;-58
2022/09/02 15:49:30;;;;;;;1.63;0.97;;;22.30;71.20;;;;;;7549653;78;26253;-59
2022/09/02 15:59:32;;;;;;;7.03;1.20;;;22.30;72.20;;;;;;7388280;79;26276;-56
2022/09/02 16:09:35;;;;;;;1.43;1.13;;;22.30;72.40;;;;;;7488842;79;26288;-58
2022/09/02 16:19:37;;;;;;;2.25;1.05;;;22.30;70.80;;;;;;7502521;79;26278;-58
2022/09/02 16:29:40;;;;;;;3.90;1.33;;;22.30;70.10;;;;;;7386170;79;26728;-59
2022/09/02 16:39:43;;;;;;;3.63;1.20;;;22.30;69.50;;;;;;7404781;78;26253;-59
2022/09/02 16:49:45;;;;;;;2.13;1.00;;;22.30;69.70;;;;;;7493844;78;26733;-59
2022/09/02 16:59:48;;;;;;;5.63;1.70;;;22.30;69.90;;;;;;7392907;79;26269;-56
2022/09/02 17:09:51;;;;;;;8.83;3.50;;;22.30;69.20;;;;;;7424223;79;26782;-56
2022/09/02 17:19:53;;;;;;;12.00;3.83;;;22.30;69.80;;;;;;7440454;79;26308;-57
2022/09/02 17:29:58;;;;;;;6.22;2.47;;;22.30;71.30;;;;;;7443121;78;26342;-59
2022/09/02 17:40:00;;;;;;;5.17;2.63;;;22.30;71.90;;;;;;7446378;78;26346;-58
2022/09/02 17:50:04;;;;;;;6.73;1.93;;;22.30;72.60;;;;;;7446127;79;27110;-59
2022/09/02 18:00:14;;;;;;;5.07;1.77;;;22.20;73.10;;;;;;7448459;79;26253;-58
2022/09/02 18:10:19;;;;;;;11.67;2.60;;;22.20;74.30;;;;;;7442698;79;26820;-58
2022/09/02 18:20:27;;;;;;;9.70;2.50;;;22.30;74.80;;;;;;7434672;79;26375;-58
2022/09/02 18:30:53;;;;;;;22.43;4.27;;;22.20;76.00;;;;;;7455624;78;26315;-59
2022/09/02 18:41:24;;;;;;;26.20;3.83;;;22.20;76.80;;;;;;7442447;78;26243;-57
2022/09/02 18:51:36;;;;;;;9.57;2.00;;;22.20;77.30;;;;;;7445441;78;26260;-58
2022/09/02 19:01:44;;;;;;;7.77;1.97;;;22.20;77.50;;;;;;7444530;78;26265;-58
2022/09/02 19:11:47;;;;;;;29.10;3.15;;;22.10;77.50;;;;;;7466720;78;26268;-58
2022/09/02 19:21:56;;;;;;;11.40;3.07;;;22.10;79.00;;;;;;7495783;78;26370;-57
2022/09/02 19:31:59;;;;;;;8.90;3.10;;;22.10;79.90;;;;;;7502181;78;26269;-57
2022/09/02 19:42:01;;;;;;;11.40;2.60;;;22.10;80.10;;;;;;7478475;78;27078;-59
2022/09/02 19:52:04;;;;;;;7.90;1.77;;;22.10;80.00;;;;;;7482171;78;26296;-60
2022/09/02 20:02:07;;;;;;;6.87;1.70;;;22.10;79.90;;;;;;7185589;81;26313;-59
2022/09/02 20:12:11;;;;;;;5.27;1.40;;;22.00;79.80;;;;;;7174964;81;26295;-59
2022/09/02 20:22:16;;;;;;;3.93;1.67;;;22.00;79.60;;;;;;7270674;80;26222;-58
2022/09/02 20:32:24;;;;;;;5.37;2.07;;;22.00;79.70;;;;;;7266795;81;26331;-59
2022/09/02 20:42:36;;;;;;;14.50;2.20;;;21.90;79.80;;;;;;7293923;80;26656;-59
2022/09/02 20:52:53;;;;;;;16.07;2.10;;;21.90;80.90;;;;;;7200351;81;26330;-59
2022/09/02 21:03:00;;;;;;;13.03;2.07;;;21.90;81.80;;;;;;7168264;81;26408;-59
2022/09/02 21:13:14;;;;;;;11.20;1.55;;;21.90;81.30;;;;;;7264704;81;26257;-59
2022/09/02 21:23:35;;;;;;;6.67;1.73;;;21.90;81.30;;;;;;7262546;81;26822;-59
2022/09/02 21:33:39;;;;;;;7.47;1.70;;;21.80;81.90;;;;;;7248857;81;26269;-59
2022/09/02 21:44:01;;;;;;;5.50;1.67;;;21.80;82.00;;;;;;7261621;81;26783;-58
2022/09/02 21:54:28;;;;;;;4.10;1.33;;;21.80;81.90;;;;;;7264179;81;26336;-59
2022/09/02 22:04:52;;;;;;;6.03;1.57;;;21.70;82.00;;;;;;7258360;81;27237;-57
2022/09/02 22:15:00;;;;;;;8.67;1.47;;;21.70;82.50;;;;;;7253335;81;26762;-56
2022/09/02 22:25:03;;;;;;;6.10;1.67;;;21.70;82.80;;;;;;7259317;81;26855;-57
2022/09/02 22:35:08;;;;;;;6.90;1.63;;;21.70;83.00;;;;;;7258295;80;26270;-59
2022/09/02 22:55:58;;;;;;;2.40;1.17;;;21.60;79.90;;;;;;7249041;81;26324;-57
2022/09/02 23:06:12;;;;;;;3.37;1.37;;;21.50;81.30;;;;;;7245199;81;26277;-59
2022/09/02 23:16:16;;;;;;;2.07;1.20;;;21.50;83.10;;;;;;7247377;81;26359;-60
2022/09/02 23:26:24;;;;;;;3.23;1.40;;;21.50;83.30;;;;;;7260358;81;26270;-59
2022/09/02 23:36:34;;;;;;;2.83;1.10;;;21.50;83.60;;;;;;7241202;81;26404;-58
2022/09/02 23:46:45;;;;;;;4.70;1.33;;;21.50;84.10;;;;;;7236614;81;26334;-58
2022/09/02 23:57:02;;;;;;;4.07;1.30;;;21.50;84.40;;;;;;7259875;81;26206;-57
